Rawalakot Weather



Rawalakot's Current Weather

Temprature 21.32o broken clouds

broken clouds

Rain: 0 %

Min Temprature21.32o
Max Temprature21.32o
Humidity46
Wind Speed1.4 m/h
Sun Rise05:09:33
Sun Set18:53:21
Current Time: 08-May-2021 16:12:14
Lat/Lon: 33.858, 73.7604




Rawalakot's Geo Location



Rawalakot's Weather Forecast

Time Overall Temp Min Temp Max Temp Humidity Wind Speed Rain
08-May-2021 (Sat)
17:00:00 light rain 21.020 21.020 21.020 48 1.7 m/h 65 %
20:00:00 broken clouds 19.570 16.680 19.570 52 2.75 m/h 0 %
23:00:00 broken clouds 17.110 15.160 17.110 56 3.2 m/h 0 %
09-May-2021 (Sun)
02:00:00 scattered clouds 14.800 14.800 14.800 58 2.9 m/h 0 %
05:00:00 scattered clouds 14.290 14.290 14.290 57 2.47 m/h 0 %
08:00:00 overcast clouds 20.580 20.580 20.580 45 1.08 m/h 0 %
11:00:00 broken clouds 24.100 24.100 24.100 35 1.94 m/h 0 %
14:00:00 broken clouds 24.400 24.400 24.400 36 1.12 m/h 0 %
17:00:00 light rain 16.440 16.440 16.440 73 3.62 m/h 162 %
20:00:00 overcast clouds 16.740 16.740 16.740 62 3.2 m/h 0 %
23:00:00 light rain 15.000 15.000 15.000 66 2.75 m/h 18 %
10-May-2021 (Mon)
02:00:00 overcast clouds 15.050 15.050 15.050 62 2.67 m/h 0 %
05:00:00 broken clouds 14.560 14.560 14.560 63 2.5 m/h 0 %
08:00:00 overcast clouds 20.500 20.500 20.500 48 1.01 m/h 0 %
11:00:00 overcast clouds 24.360 24.360 24.360 37 2.07 m/h 0 %
14:00:00 broken clouds 26.530 26.530 26.530 32 2.44 m/h 0 %
17:00:00 light rain 20.450 20.450 20.450 57 4.07 m/h 43 %
20:00:00 light rain 15.770 15.770 15.770 63 3.47 m/h 75 %
23:00:00 light rain 16.150 16.150 16.150 58 3.48 m/h 32 %
11-May-2021 (Tue)
02:00:00 broken clouds 15.460 15.460 15.460 59 3.51 m/h 0 %
05:00:00 broken clouds 14.800 14.800 14.800 60 3.25 m/h 0 %
08:00:00 light rain 21.210 21.210 21.210 47 1.77 m/h 10 %
11:00:00 overcast clouds 25.810 25.810 25.810 33 2.38 m/h 0 %
14:00:00 broken clouds 26.530 26.530 26.530 32 1.9 m/h 0 %
17:00:00 light rain 19.460 19.460 19.460 57 3.9 m/h 108 %
20:00:00 light rain 15.370 15.370 15.370 63 4.69 m/h 38 %
23:00:00 light rain 14.900 14.900 14.900 69 2.08 m/h 117 %
12-May-2021 (Wed)
02:00:00 light rain 13.160 13.160 13.160 76 4.21 m/h 170 %
05:00:00 light rain 14.270 14.270 14.270 71 3.35 m/h 78 %
08:00:00 light rain 18.140 18.140 18.140 59 1.39 m/h 197 %
11:00:00 light rain 21.920 21.920 21.920 47 1.3 m/h 80 %
14:00:00 light rain 19.410 19.410 19.410 58 0.49 m/h 187 %
17:00:00 moderate rain 16.190 16.190 16.190 72 2.32 m/h 386 %
20:00:00 light rain 12.810 12.810 12.810 79 1.7 m/h 184 %
23:00:00 light rain 12.870 12.870 12.870 79 1.84 m/h 125 %
13-May-2021 (Thu)
02:00:00 light rain 12.430 12.430 12.430 74 2.54 m/h 59 %
05:00:00 light rain 12.190 12.190 12.190 79 2.42 m/h 231 %
08:00:00 light rain 15.450 15.450 15.450 66 1.87 m/h 39 %
11:00:00 light rain 19.970 19.970 19.970 46 1.67 m/h 33 %
14:00:00 light rain 21.320 21.320 21.320 43 1.38 m/h 13 %

Famous Cities (60)